createdAt,value
2022-08-01T05:59:43.769Z,100916.88
2022-08-01T06:02:22.069Z,100914.41
2022-08-01T06:04:59.458Z,100912.94
2022-08-01T06:07:37.805Z,100910.28
2022-08-01T06:10:16.227Z,100914.69
2022-08-01T06:12:55.418Z,100911.38
2022-08-01T06:15:35.329Z,100910.41
2022-08-01T06:18:13.728Z,100916.81
2022-08-01T06:20:51.798Z,100918.69
2022-08-01T06:23:31.726Z,100910.97
2022-08-01T06:26:13.499Z,100917.25
2022-08-01T06:28:51.550Z,100907.03
2022-08-01T06:31:33.975Z,100913.44
2022-08-01T06:34:11.099Z,100904.56
2022-08-01T06:36:47.959Z,100910.63
2022-08-01T06:39:24.965Z,100906.59
2022-08-01T06:42:01.647Z,100906.28
2022-08-01T06:44:38.644Z,100903.25
2022-08-01T06:47:18.194Z,100904.59
2022-08-01T06:49:55.325Z,100907.78
2022-08-01T06:52:32.128Z,100901.22
2022-08-01T06:55:10.495Z,100907.81
2022-08-01T06:57:55.801Z,100899.06
2022-08-01T07:00:33.086Z,100907.13
2022-08-01T07:03:12.557Z,100907.66
2022-08-01T07:05:49.799Z,100902.59
2022-08-01T07:08:26.482Z,100903.94
2022-08-01T07:11:04.668Z,100917.25
2022-08-01T07:13:45.459Z,100915.94
2022-08-01T07:16:23.481Z,100909.00
2022-08-01T07:19:02.897Z,100904.31
2022-08-01T07:21:41.338Z,100899.91
2022-08-01T07:24:20.950Z,100907.66
2022-08-01T07:26:58.925Z,100906.63
2022-08-01T07:29:55.718Z,100900.19
2022-08-01T07:32:33.504Z,100910.47
2022-08-01T07:35:14.188Z,100898.47
2022-08-01T07:37:51.566Z,100910.78
2022-08-01T07:40:28.549Z,100899.81
2022-08-01T07:43:05.697Z,100895.75
2022-08-01T07:45:43.201Z,100902.81
2022-08-01T07:48:25.549Z,100892.03
2022-08-01T07:51:05.144Z,100913.25
2022-08-01T07:53:42.646Z,100902.47
2022-08-01T07:56:19.765Z,100905.84
2022-08-01T07:58:56.914Z,100898.59
2022-08-01T08:01:33.776Z,100898.44
2022-08-01T08:04:10.999Z,100899.41
2022-08-01T08:06:51.125Z,100907.50
2022-08-01T08:09:28.144Z,100902.41
2022-08-01T08:12:05.247Z,100903.72
2022-08-01T08:14:42.896Z,100906.75
2022-08-01T08:17:19.732Z,100894.56
2022-08-01T08:19:56.855Z,100901.78
2022-08-01T08:22:36.386Z,100902.28
2022-08-01T08:25:13.925Z,100909.72
2022-08-01T08:27:51.174Z,100906.50
2022-08-01T08:30:28.964Z,100906.97
2022-08-01T08:33:05.805Z,100910.31
2022-08-01T08:35:53.689Z,100901.34
2022-08-01T08:38:33.764Z,100905.19
2022-08-01T08:41:11.204Z,100913.41
2022-08-01T08:43:48.282Z,100909.81
2022-08-01T08:46:28.305Z,100908.09
2022-08-01T08:49:07.741Z,100910.41
2022-08-01T08:51:48.082Z,100909.59
2022-08-01T08:54:31.467Z,100900.63
2022-08-01T08:57:11.936Z,100910.63
2022-08-01T08:59:49.133Z,100904.44
2022-08-01T09:02:26.424Z,100905.38
2022-08-01T09:05:03.511Z,100915.00
2022-08-01T09:07:41.147Z,100908.81
2022-08-01T09:10:20.701Z,100915.13
2022-08-01T09:13:14.396Z,100916.22
2022-08-01T09:15:55.154Z,100911.41
2022-08-01T09:18:36.047Z,100925.34
2022-08-01T09:21:19.356Z,100911.56
2022-08-01T09:24:00.245Z,100920.25
2022-08-01T09:26:40.974Z,100918.72
2022-08-01T09:29:37.204Z,100922.19
2022-08-01T09:32:16.140Z,100918.78
2022-08-01T09:34:53.714Z,100917.41
2022-08-01T09:37:37.318Z,100926.66
2022-08-01T09:40:15.679Z,100912.88
2022-08-01T09:43:15.101Z,100909.16
2022-08-01T09:48:33.998Z,100917.56
2022-08-01T09:51:12.787Z,100914.47
2022-08-01T09:54:11.505Z,100916.19
2022-08-01T09:56:48.645Z,100922.88
2022-08-01T09:59:57.840Z,100919.78
2022-08-01T10:02:38.847Z,100926.31
2022-08-01T10:05:18.832Z,100917.97
2022-08-01T10:08:07.973Z,100923.19
2022-08-01T10:10:46.315Z,100920.72
2022-08-01T10:13:23.762Z,100932.03
2022-08-01T10:16:04.659Z,100935.81
2022-08-01T10:18:46.179Z,100932.25
2022-08-01T10:21:53.213Z,100929.38
2022-08-01T10:24:24.519Z,100935.63
2022-08-01T10:27:08.426Z,100927.06
2022-08-01T10:30:05.588Z,100930.41
2022-08-01T10:32:51.395Z,100930.44
2022-08-01T10:35:47.519Z,100926.66
2022-08-01T10:38:24.821Z,100932.09
2022-08-01T10:41:06.286Z,100930.41
2022-08-01T10:43:45.642Z,100935.44
2022-08-01T10:46:24.460Z,100931.66
2022-08-01T10:49:11.819Z,100927.88
2022-08-01T10:51:51.391Z,100930.81
2022-08-01T10:54:30.620Z,100930.34
2022-08-01T10:57:08.778Z,100934.72
2022-08-01T11:00:01.075Z,100934.88
2022-08-01T11:02:42.161Z,100934.41
2022-08-01T11:05:27.719Z,100930.34
2022-08-01T11:08:09.829Z,100921.34
2022-08-01T11:10:47.740Z,100931.34
2022-08-01T11:14:15.398Z,100928.03
2022-08-01T11:16:52.089Z,100931.34
2022-08-01T11:19:49.591Z,100939.94
2022-08-01T11:22:28.971Z,100938.44
2022-08-01T11:25:07.338Z,100926.75
2022-08-01T11:27:44.858Z,100940.44
2022-08-01T11:30:31.150Z,100940.31
2022-08-01T11:33:11.078Z,100936.44
2022-08-01T11:36:48.671Z,100945.50
2022-08-01T11:39:22.620Z,100945.84
2022-08-01T11:42:19.698Z,100941.63
2022-08-01T11:44:58.689Z,100949.50
2022-08-01T11:47:52.808Z,100945.72
2022-08-01T11:50:40.408Z,100944.69
2022-08-01T11:53:20.172Z,100937.38
2022-08-01T11:56:04.516Z,100942.41
2022-08-01T11:58:41.856Z,100946.03
2022-08-01T12:01:18.810Z,100946.03
2022-08-01T12:04:00.904Z,100943.97
2022-08-01T12:06:37.920Z,100949.25
2022-08-01T12:09:23.644Z,100954.03
2022-08-01T12:12:03.106Z,100947.06
2022-08-01T12:14:40.333Z,100943.75
2022-08-01T12:17:17.459Z,100957.31
2022-08-01T12:19:55.130Z,100949.59
2022-08-01T12:22:32.002Z,100948.00
2022-08-01T12:25:15.272Z,100940.63
2022-08-01T12:27:56.758Z,100945.38
2022-08-01T12:30:36.707Z,100940.50
2022-08-01T12:33:21.032Z,100941.25
2022-08-01T12:35:59.133Z,100932.16
2022-08-01T12:38:35.925Z,100946.19
2022-08-01T12:41:15.896Z,100946.78
2022-08-01T12:43:55.576Z,100939.31
2022-08-01T12:46:32.848Z,100955.69
2022-08-01T12:49:09.783Z,100938.72
2022-08-01T12:51:57.223Z,100948.84
2022-08-01T12:54:34.632Z,100951.50
2022-08-01T12:57:27.647Z,100958.16
2022-08-01T13:00:22.044Z,100961.19
2022-08-01T13:03:08.594Z,100960.03
2022-08-01T13:05:56.627Z,100959.66
2022-08-01T13:08:39.776Z,100953.97
2022-08-01T13:11:20.137Z,100953.44
2022-08-01T13:13:58.274Z,100960.91
2022-08-01T13:16:57.138Z,100967.13
2022-08-01T13:19:48.585Z,100950.31
2022-08-01T13:22:35.550Z,100956.13
2022-08-01T13:25:19.832Z,100963.91
2022-08-01T13:28:21.035Z,100973.47
2022-08-01T13:31:04.798Z,100971.19
2022-08-01T13:33:52.394Z,100978.28
2022-08-01T13:36:38.081Z,100972.44
2022-08-01T13:39:27.456Z,100978.81
2022-08-01T13:42:04.834Z,100975.34
2022-08-01T13:44:42.303Z,100974.63
2022-08-01T13:47:19.310Z,100971.97
2022-08-01T13:50:10.556Z,100969.84
2022-08-01T13:52:47.794Z,100973.81
2022-08-01T13:55:24.892Z,100970.72
2022-08-01T13:58:02.093Z,100985.34
2022-08-01T14:00:39.031Z,100983.34
2022-08-01T14:03:17.978Z,100988.72
2022-08-01T14:05:58.552Z,100983.13
2022-08-01T14:08:36.056Z,100993.50
2022-08-01T14:11:13.050Z,100993.84
2022-08-01T14:13:51.025Z,100992.44
2022-08-01T14:16:28.177Z,100991.28
2022-08-01T14:19:05.249Z,100990.72
2022-08-01T14:21:44.776Z,100993.53
2022-08-01T14:24:21.855Z,100995.22
2022-08-01T14:26:58.952Z,100999.88
2022-08-01T14:29:54.596Z,100995.28
2022-08-01T14:32:34.667Z,101001.28
2022-08-01T14:35:12.869Z,100990.44
2022-08-01T14:37:52.448Z,100993.13
2022-08-01T14:40:35.329Z,100996.53
2022-08-01T14:43:25.062Z,100996.59
2022-08-01T14:46:04.939Z,101002.47
2022-08-01T14:48:41.865Z,101002.47
2022-08-01T14:51:19.007Z,101010.03
2022-08-01T14:53:58.485Z,101003.88
2022-08-01T14:56:35.798Z,101007.44
2022-08-01T14:59:21.924Z,101012.47
2022-08-01T15:01:59.669Z,101014.16
2022-08-01T15:04:36.399Z,101020.81
2022-08-01T15:07:13.661Z,101020.41
2022-08-01T15:09:53.198Z,101016.22
2022-08-01T15:12:44.641Z,101027.13
2022-08-01T15:15:27.136Z,101019.59
2022-08-01T15:18:04.433Z,101018.75
2022-08-01T15:20:41.259Z,101008.69
2022-08-01T15:23:18.456Z,101017.91
2022-08-01T15:25:58.100Z,101019.00
2022-08-01T15:28:35.950Z,101022.16
2022-08-01T15:31:14.364Z,101016.13
2022-08-01T15:33:51.716Z,101017.97
2022-08-01T15:36:28.489Z,101018.38
2022-08-01T15:39:05.648Z,101005.03
2022-08-01T15:41:45.625Z,101015.53
2022-08-01T15:44:23.426Z,101019.88
2022-08-01T15:47:00.768Z,101017.78
2022-08-01T15:49:38.746Z,101023.25
2022-08-01T15:52:22.069Z,101020.06
2022-08-01T15:55:00.427Z,101024.25
2022-08-01T15:57:40.035Z,101013.56
2022-08-01T16:00:18.305Z,101015.47
2022-08-01T16:02:56.557Z,101018.66
2022-08-01T16:05:34.027Z,101018.66
2022-08-01T16:08:11.037Z,101024.34
2022-08-01T16:10:48.348Z,101030.25
2022-08-01T16:13:27.708Z,101022.28
2022-08-01T16:16:05.953Z,101024.22
2022-08-01T16:18:43.037Z,101027.75
2022-08-01T16:21:20.767Z,101025.19
2022-08-01T16:23:57.660Z,101035.16
2022-08-01T16:26:34.837Z,101026.34
2022-08-01T16:29:14.745Z,101030.34
2022-08-01T16:32:02.644Z,101033.25
2022-08-01T16:34:46.756Z,101030.50
2022-08-01T16:37:24.001Z,101027.31
2022-08-01T16:40:00.834Z,101027.19
2022-08-01T16:42:38.389Z,101033.72
2022-08-01T16:45:21.808Z,101033.94
2022-08-01T16:47:58.966Z,101032.66
2022-08-01T16:50:36.347Z,101037.69
2022-08-01T16:53:13.570Z,101042.28
2022-08-01T16:55:51.080Z,101031.78
2022-08-01T16:58:28.870Z,101043.88
2022-08-01T17:02:01.640Z,101043.56
2022-08-01T17:04:07.223Z,101042.81
2022-08-01T17:06:46.025Z,101045.63
2022-08-01T17:09:23.852Z,101043.16
2022-08-01T17:12:01.680Z,101050.31
2022-08-01T17:14:40.223Z,101052.22
2022-08-01T17:17:20.495Z,101049.53
2022-08-01T17:19:58.640Z,101052.63
2022-08-01T17:22:36.250Z,101052.22
2022-08-01T17:25:15.987Z,101046.13
2022-08-01T17:27:54.242Z,101052.59
2022-08-01T17:30:33.272Z,101050.50
2022-08-01T17:33:12.825Z,101056.13
2022-08-01T17:35:50.051Z,101055.69
2022-08-01T17:38:27.022Z,101060.44
2022-08-01T17:41:04.213Z,101057.03
2022-08-01T17:43:41.058Z,101067.84
2022-08-01T17:46:18.473Z,101067.41
2022-08-01T17:48:58.008Z,101065.06
2022-08-01T17:51:35.442Z,101063.56
2022-08-01T17:54:12.895Z,101064.72
2022-08-01T17:56:50.070Z,101067.59
2022-08-01T17:59:26.810Z,101077.59
2022-08-01T18:02:04.451Z,101076.72
2022-08-01T18:04:44.467Z,101077.06
2022-08-01T18:07:22.070Z,101080.75
2022-08-01T18:10:19.151Z,101083.34
2022-08-01T18:12:59.995Z,101080.13
2022-08-01T18:15:37.930Z,101090.44
2022-08-01T18:18:17.641Z,101087.25
2022-08-01T18:20:57.672Z,101090.00
2022-08-01T18:23:35.491Z,101091.09
2022-08-01T18:26:12.351Z,101085.31
2022-08-01T18:28:49.618Z,101087.31
2022-08-01T18:31:26.541Z,101081.34
2022-08-01T18:34:04.201Z,101095.34
2022-08-01T18:36:43.629Z,101098.34
2022-08-01T18:39:21.821Z,101094.91
2022-08-01T18:42:02.578Z,101096.88
2022-08-01T18:44:40.106Z,101112.00
2022-08-01T18:47:17.500Z,101107.69
2022-08-01T18:49:54.638Z,101114.22
2022-08-01T18:52:35.793Z,101104.50
2022-08-01T18:55:13.540Z,101114.38
2022-08-01T18:57:50.610Z,101118.84
2022-08-01T19:00:27.839Z,101120.41
2022-08-01T19:03:04.697Z,101128.97
2022-08-01T19:05:41.951Z,101138.72
2022-08-01T19:08:21.469Z,101134.44
2022-08-01T19:11:00.254Z,101137.59
2022-08-01T19:13:38.769Z,101141.91
2022-08-01T19:16:16.941Z,101146.91
2022-08-01T19:18:53.861Z,101153.41
2022-08-01T19:21:32.632Z,101149.06
2022-08-01T19:24:23.044Z,101149.63
2022-08-01T19:27:08.928Z,101153.03
2022-08-01T19:29:52.337Z,101157.59
2022-08-01T19:32:33.160Z,101153.25
2022-08-01T19:35:13.794Z,101152.75
2022-08-01T19:37:54.082Z,101154.28
2022-08-01T19:40:35.078Z,101158.09
2022-08-01T19:43:17.646Z,101165.34
2022-08-01T19:45:55.097Z,101162.09
2022-08-01T19:48:32.177Z,101168.34
2022-08-01T19:51:10.497Z,101164.25
2022-08-01T19:53:55.378Z,101163.53
2022-08-01T19:56:44.824Z,101176.59
2022-08-01T19:59:25.202Z,101175.84
2022-08-01T20:02:01.997Z,101166.38
